SCBA/BBA METAR and TAF weather

Enter ICAO airport designator
Station Type Date Time Source
SCBA METAR 2020/07/03 21:00 UTC NOAA

SCBA 032100Z 28004KT 9999 FEW040 02/M03 Q1005


Station Type Date Time Source
SCBA Decoded METAR 2020/07/03 21:00 UTC NOAA

Balmaceda, Chile (SCBA) 45-55S 071-41W 520M
Jul 03, 2020 - 05:00 PM EDT / 2020.07.03 2100 UTC
Wind: from the W (280 degrees) at 5 MPH (4 KT):0
Visibility: greater than 7 mile(s):0
Sky conditions: mostly clear
Temperature: 35 F (2 C)
Windchill: 30 F (-1 C):1
Dew Point: 26 F (-3 C)
Relative Humidity: 69%
Pressure (altimeter): 29.68 in. Hg (1005 hPa)
ob: SCBA 032100Z 28004KT 9999 FEW040 02/M03 Q1005
cycle: 21

Station Type Date Time Source
SCBA TAF 2020/07/04 06:04 UTC NOAA

TAF SCBA 040312Z 0406/0506 VRB02KT CAVOK TNM03/0407Z TX03/0418Z

Example: see airport list